Time;durP1;ratioP1;P1;durP2;ratioP2;P2;SDS_P1;SDS_P2;PMS_P1;PMS_P2;Temp;Humidity;BMP_temperature;BMP_pressure;BME280_temperature;BME280_humidity;BME280_pressure;Samples;Min_cycle;Max_cycle;Signal;HPM_P1;HPM_P2
2021/10/25 00:02:06;;;;;;;18.90;11.43;;;179.30;2252.80;;;;;;5060281;28;20202;-76
2021/10/25 00:04:32;;;;;;;21.70;13.93;;;179.30;2252.80;;;;;;5079427;28;20021;-76
2021/10/25 00:06:59;;;;;;;20.50;12.63;;;179.30;2252.80;;;;;;5079241;28;20028;-76
2021/10/25 00:09:24;;;;;;;24.05;14.57;;;154.50;2252.80;;;;;;5057202;28;20487;-75
2021/10/25 00:11:51;;;;;;;23.48;15.10;;;154.50;2252.80;;;;;;5074874;28;20025;-76
2021/10/25 00:14:17;;;;;;;24.75;12.52;;;154.50;2252.80;;;;;;5073935;28;20024;-75
2021/10/25 00:16:43;;;;;;;19.20;11.50;;;154.40;2252.80;;;;;;5068370;28;20078;-76
2021/10/25 00:19:10;;;;;;;20.33;12.18;;;154.40;2252.80;;;;;;5057448;28;20025;-76
2021/10/25 00:21:36;;;;;;;17.33;12.95;;;154.40;2252.80;;;;;;5075997;28;20029;-75
2021/10/25 00:24:03;;;;;;;17.75;11.13;;;154.40;2252.80;;;;;;5057317;28;20016;-76
2021/10/25 00:26:29;;;;;;;22.35;13.02;;;154.40;2252.80;;;;;;5057469;28;20510;-75
2021/10/25 00:28:55;;;;;;;19.20;11.18;;;154.30;2252.80;;;;;;5070558;28;20082;-75
2021/10/25 00:31:21;;;;;;;18.00;12.35;;;154.30;2252.80;;;;;;5075607;28;20056;-75
2021/10/25 00:33:46;;;;;;;17.90;11.00;;;154.30;2252.80;;;;;;5067373;28;20475;-75
2021/10/25 00:36:12;;;;;;;23.20;12.80;;;154.30;2252.80;;;;;;5073898;28;20024;-75
2021/10/25 00:38:38;;;;;;;24.80;14.20;;;154.20;2252.80;;;;;;5062047;28;20768;-75
2021/10/25 00:41:04;;;;;;;25.83;14.38;;;154.10;2252.80;;;;;;5074179;28;20036;-75
2021/10/25 00:43:30;;;;;;;21.85;12.77;;;154.10;2252.80;;;;;;5061530;28;20029;-75
2021/10/25 00:45:56;;;;;;;24.42;13.13;;;154.10;2252.80;;;;;;5074287;28;20115;-76
2021/10/25 00:48:22;;;;;;;24.00;12.95;;;154.00;2252.80;;;;;;5072032;28;20916;-76
2021/10/25 00:50:48;;;;;;;19.33;12.48;;;154.00;2252.80;;;;;;5057753;28;20029;-76
2021/10/25 00:53:14;;;;;;;25.50;13.50;;;154.00;2252.80;;;;;;5071417;28;20119;-76
2021/10/25 00:55:40;;;;;;;21.35;12.98;;;153.90;2252.80;;;;;;5074519;28;20052;-76
2021/10/25 00:58:07;;;;;;;17.83;12.02;;;153.80;2252.80;;;;;;5068579;28;20020;-75
2021/10/25 01:00:34;;;;;;;20.35;12.15;;;153.70;2252.80;;;;;;5058430;28;20028;-76
2021/10/25 01:03:01;;;;;;;18.88;10.93;;;153.60;2252.80;;;;;;5067366;28;20044;-76
2021/10/25 01:05:28;;;;;;;18.50;12.57;;;153.60;2252.80;;;;;;5058498;28;20092;-75
2021/10/25 01:07:55;;;;;;;19.92;10.73;;;153.70;2252.80;;;;;;5076426;28;20017;-76
2021/10/25 01:10:21;;;;;;;18.25;11.23;;;153.60;2252.80;;;;;;5076478;28;20027;-75
2021/10/25 01:12:50;;;;;;;23.77;13.30;;;128.90;2252.80;;;;;;5077284;28;20024;-76
2021/10/25 01:15:15;;;;;;;30.65;17.85;;;153.60;2252.80;;;;;;5060719;28;20025;-76
2021/10/25 01:17:41;;;;;;;37.00;20.58;;;153.60;2252.80;;;;;;5078056;28;20055;-76
2021/10/25 01:20:08;;;;;;;39.10;23.10;;;153.60;2252.80;;;;;;5075331;28;20032;-76
2021/10/25 01:22:34;;;;;;;31.40;18.17;;;153.60;2252.80;;;;;;5073971;28;20032;-75
2021/10/25 01:25:01;;;;;;;33.03;18.55;;;128.90;2252.80;;;;;;5075004;28;20024;-76
2021/10/25 01:27:26;;;;;;;33.05;18.48;;;128.90;2252.80;;;;;;5057169;28;20023;-76
2021/10/25 01:29:52;;;;;;;39.22;20.38;;;128.90;2252.80;;;;;;5056712;28;20024;-76
2021/10/25 01:32:18;;;;;;;37.17;20.63;;;128.90;2252.80;;;;;;5090989;28;20085;-76
2021/10/25 01:34:44;;;;;;;31.85;17.55;;;128.90;2252.80;;;;;;5058827;28;20021;-76
2021/10/25 01:37:11;;;;;;;29.20;17.23;;;128.90;2252.80;;;;;;5056362;28;20021;-76
2021/10/25 01:39:37;;;;;;;33.50;17.83;;;128.80;2252.80;;;;;;5074325;28;20154;-76
2021/10/25 01:42:04;;;;;;;35.78;20.58;;;128.60;2252.80;;;;;;5074087;28;20463;-75
2021/10/25 01:44:29;;;;;;;35.22;20.33;;;128.60;2252.80;;;;;;5073962;28;20159;-76
2021/10/25 01:46:55;;;;;;;34.35;18.10;;;128.60;2252.80;;;;;;5073542;28;20539;-76
2021/10/25 01:49:21;;;;;;;27.00;16.13;;;128.60;2252.80;;;;;;5072899;28;20112;-75
2021/10/25 01:51:48;;;;;;;36.30;17.88;;;128.60;2252.80;;;;;;5074235;28;20016;-76
2021/10/25 01:54:14;;;;;;;31.90;20.25;;;128.60;2252.80;;;;;;5074320;28;20024;-76
2021/10/25 01:56:40;;;;;;;41.03;20.52;;;128.60;2252.80;;;;;;5055026;28;20029;-75
2021/10/25 01:59:10;;;;;;;30.73;16.95;;;128.60;2252.80;;;;;;5074357;28;20379;-75
2021/10/25 02:01:36;;;;;;;24.73;15.50;;;128.60;2252.80;;;;;;5073075;28;20058;-75
2021/10/25 02:04:06;;;;;;;23.20;14.02;;;128.40;2252.80;;;;;;5073667;28;20029;-75
2021/10/25 02:06:33;;;;;;;26.60;15.48;;;128.50;2252.80;;;;;;5071561;28;20033;-75
2021/10/25 02:09:01;;;;;;;27.10;15.30;;;128.50;2252.80;;;;;;5072851;28;20040;-75
2021/10/25 02:11:26;;;;;;;19.33;12.15;;;128.50;2252.80;;;;;;5073330;28;20036;-75
2021/10/25 02:13:52;;;;;;;17.15;11.68;;;128.40;2252.80;;;;;;5073392;28;20025;-75
2021/10/25 02:16:18;;;;;;;18.02;12.40;;;128.40;2252.80;;;;;;5074002;28;20128;-75
2021/10/25 02:18:44;;;;;;;18.35;11.75;;;128.40;2252.80;;;;;;5055583;28;20027;-76
2021/10/25 02:21:11;;;;;;;18.42;10.80;;;128.40;2252.80;;;;;;5055623;28;20051;-75
2021/10/25 02:23:37;;;;;;;18.55;10.93;;;128.30;2252.80;;;;;;5072985;28;20107;-75
2021/10/25 02:26:04;;;;;;;19.35;10.85;;;128.30;2252.80;;;;;;5073541;28;20052;-76
2021/10/25 02:28:31;;;;;;;19.50;11.48;;;128.30;2252.80;;;;;;5064335;28;20025;-76
2021/10/25 02:30:57;;;;;;;18.98;11.05;;;128.30;2252.80;;;;;;5073132;28;20048;-75
2021/10/25 02:33:23;;;;;;;21.05;11.80;;;128.30;2252.80;;;;;;5058342;28;20091;-75
2021/10/25 02:35:50;;;;;;;20.48;10.82;;;128.30;2252.80;;;;;;5054975;28;20033;-75
2021/10/25 02:38:17;;;;;;;18.90;12.07;;;128.20;2252.80;;;;;;5069410;28;20032;-75
2021/10/25 02:40:43;;;;;;;26.95;14.00;;;128.20;2252.80;;;;;;5054470;28;20029;-75
2021/10/25 02:43:08;;;;;;;20.30;10.88;;;128.20;2252.80;;;;;;5072915;28;20027;-75
2021/10/25 02:45:35;;;;;;;20.25;11.73;;;128.10;2252.80;;;;;;5053718;28;20048;-75
2021/10/25 02:48:02;;;;;;;15.77;10.90;;;128.10;2252.80;;;;;;5072780;28;20029;-75
2021/10/25 02:50:28;;;;;;;18.17;10.38;;;128.10;2252.80;;;;;;5054335;28;20020;-75
2021/10/25 02:52:54;;;;;;;16.88;11.27;;;128.10;2252.80;;;;;;5072782;28;20028;-75
2021/10/25 02:55:19;;;;;;;22.27;12.55;;;128.10;2252.80;;;;;;5073498;28;20033;-75
2021/10/25 02:57:45;;;;;;;26.10;12.10;;;128.10;2252.80;;;;;;5074416;28;20029;-74
2021/10/25 03:00:14;;;;;;;20.98;11.45;;;128.10;2252.80;;;;;;5055165;28;20025;-75
2021/10/25 03:02:41;;;;;;;28.10;13.65;;;128.10;2252.80;;;;;;5075117;28;20021;-75
2021/10/25 03:05:07;;;;;;;24.20;12.48;;;128.10;2252.80;;;;;;5058981;28;20051;-75
2021/10/25 03:07:33;;;;;;;22.52;12.30;;;128.00;2252.80;;;;;;5071346;28;20066;-75
2021/10/25 03:09:59;;;;;;;19.25;10.95;;;103.30;2227.20;;;;;;5072442;28;20111;-75
2021/10/25 03:12:26;;;;;;;19.00;13.70;;;128.00;2252.80;;;;;;5040828;28;20133;-75
2021/10/25 03:14:53;;;;;;;16.58;10.70;;;103.30;2227.20;;;;;;5073031;28;20012;-75
2021/10/25 03:17:20;;;;;;;17.50;11.85;;;103.30;2227.20;;;;;;5071957;28;20132;-76
2021/10/25 03:19:47;;;;;;;19.48;10.65;;;103.20;2227.20;;;;;;5072469;28;20035;-75
2021/10/25 03:22:14;;;;;;;22.55;12.48;;;103.20;2227.20;;;;;;5071614;28;20028;-75
2021/10/25 03:24:40;;;;;;;16.27;11.32;;;103.20;2227.20;;;;;;5054128;28;20029;-75
2021/10/25 03:27:06;;;;;;;19.08;11.30;;;103.20;2227.20;;;;;;5072510;28;20380;-75
2021/10/25 03:29:32;;;;;;;17.77;11.60;;;103.20;2227.20;;;;;;5057609;28;20031;-75
2021/10/25 03:31:59;;;;;;;20.55;11.52;;;103.20;2227.20;;;;;;5057805;28;20074;-75
2021/10/25 03:34:26;;;;;;;16.35;11.60;;;103.20;2227.20;;;;;;5056366;28;20029;-75
2021/10/25 03:36:53;;;;;;;16.30;11.65;;;103.20;2227.20;;;;;;5072125;28;20071;-75
2021/10/25 03:39:22;;;;;;;19.90;11.07;;;103.10;2227.20;;;;;;5064658;28;20020;-75
2021/10/25 03:41:50;;;;;;;24.42;12.82;;;103.10;2227.20;;;;;;5040700;28;20052;-76
2021/10/25 03:46:54;;;;;;;15.57;11.13;;;103.10;2227.20;;;;;;5072710;28;20032;-75
2021/10/25 03:51:52;;;;;;;21.33;12.55;;;103.20;2227.20;;;;;;5082727;28;20066;-76
2021/10/25 03:54:35;;;;;;;27.00;15.00;;;103.10;2227.20;;;;;;5050269;28;20024;-76
2021/10/25 04:26:26;;;;;;;26.42;14.00;;;102.80;2227.20;;;;;;5067328;28;20075;-75
2021/10/25 04:28:52;;;;;;;31.20;17.27;;;102.80;2227.20;;;;;;5079385;28;20021;-75
2021/10/25 04:31:18;;;;;;;53.42;27.25;;;102.80;2227.20;;;;;;5058057;28;20020;-75
2021/10/25 04:33:44;;;;;;;47.47;23.02;;;102.70;2227.20;;;;;;5063161;28;20067;-76
2021/10/25 04:36:10;;;;;;;30.75;17.52;;;102.60;2227.20;;;;;;5056563;28;20122;-76
2021/10/25 04:38:36;;;;;;;28.60;17.55;;;102.60;2227.20;;;;;;5076359;28;20472;-76
2021/10/25 04:41:02;;;;;;;24.08;15.68;;;102.60;2227.20;;;;;;5075968;28;20029;-75
2021/10/25 04:43:28;;;;;;;22.17;15.02;;;102.60;2227.20;;;;;;5061742;28;20049;-75
2021/10/25 04:45:54;;;;;;;29.83;17.65;;;102.50;2227.20;;;;;;5059198;28;20111;-76
2021/10/25 04:48:20;;;;;;;22.75;15.05;;;102.60;2227.20;;;;;;5080835;28;20073;-76
2021/10/25 04:50:46;;;;;;;25.60;14.32;;;102.60;2227.20;;;;;;5078511;28;20031;-76
2021/10/25 04:53:12;;;;;;;25.05;15.48;;;102.50;2227.20;;;;;;5078052;28;20025;-76
2021/10/25 04:55:37;;;;;;;20.58;12.98;;;102.50;2227.20;;;;;;5065572;28;20031;-75
2021/10/25 04:58:03;;;;;;;25.77;14.93;;;102.60;2227.20;;;;;;5079928;28;20100;-75
2021/10/25 05:00:29;;;;;;;25.58;15.75;;;102.60;2227.20;;;;;;5083305;28;20765;-75
2021/10/25 05:02:55;;;;;;;21.35;13.77;;;102.60;2227.20;;;;;;5078524;28;20026;-75
2021/10/25 05:05:22;;;;;;;23.98;15.18;;;102.60;2227.20;;;;;;5093230;28;20032;-76
2021/10/25 05:07:48;;;;;;;25.02;16.02;;;102.70;2227.20;;;;;;5084954;28;20016;-75
2021/10/25 05:10:13;;;;;;;22.58;13.98;;;102.70;2227.20;;;;;;5078791;28;20032;-76
2021/10/25 05:12:39;;;;;;;22.38;13.02;;;102.80;2227.20;;;;;;5086945;28;20021;-75
2021/10/25 05:15:06;;;;;;;19.08;11.20;;;102.70;2227.20;;;;;;5061688;28;20029;-76
2021/10/25 05:17:31;;;;;;;30.02;19.58;;;102.80;2227.20;;;;;;5076321;28;20053;-75
2021/10/25 05:19:57;;;;;;;29.67;18.52;;;102.80;2227.20;;;;;;5079718;28;20121;-75
2021/10/25 05:22:23;;;;;;;27.65;17.08;;;102.80;2227.20;;;;;;5076310;28;20021;-76
2021/10/25 05:24:52;;;;;;;22.52;14.70;;;102.80;2227.20;;;;;;5049125;28;20052;-76
2021/10/25 05:27:21;;;;;;;24.25;16.80;;;102.60;2227.20;;;;;;5087273;28;20549;-76
2021/10/25 05:29:46;;;;;;;20.92;13.93;;;102.70;2227.20;;;;;;5078614;28;20044;-76
2021/10/25 05:32:13;;;;;;;21.10;13.63;;;102.80;2227.20;;;;;;5078905;28;20048;-76
2021/10/25 05:34:39;;;;;;;20.55;12.70;;;102.80;2227.20;;;;;;5075602;28;20031;-76
2021/10/25 05:37:05;;;;;;;33.50;18.40;;;102.90;2227.20;;;;;;5077163;28;20021;-76
2021/10/25 05:39:32;;;;;;;60.03;32.10;;;102.90;2227.20;;;;;;5083603;28;20017;-76
2021/10/25 05:42:00;;;;;;;45.75;24.83;;;102.90;2227.20;;;;;;5082238;28;20048;-76
2021/10/25 05:44:26;;;;;;;35.50;19.95;;;102.90;2227.20;;;;;;5076932;28;20475;-76
2021/10/25 05:46:52;;;;;;;26.30;16.88;;;102.90;2227.20;;;;;;5084145;28;20032;-76
2021/10/25 05:49:18;;;;;;;25.50;17.20;;;102.90;2227.20;;;;;;5068201;28;20028;-76
2021/10/25 05:51:44;;;;;;;24.70;15.32;;;102.90;2227.20;;;;;;5065014;28;20177;-76
2021/10/25 05:54:10;;;;;;;25.05;15.27;;;102.90;2227.20;;;;;;5077448;28;20042;-76
2021/10/25 05:56:36;;;;;;;24.17;13.50;;;102.80;2227.20;;;;;;5073774;28;20095;-76
2021/10/25 05:59:02;;;;;;;28.33;16.40;;;102.90;2227.20;;;;;;5079348;28;20024;-77
2021/10/25 06:01:34;;;;;;;27.15;15.68;;;102.90;2227.20;;;;;;5074902;28;20024;-76
2021/10/25 06:04:05;;;;;;;21.80;15.68;;;102.90;2227.20;;;;;;5076585;28;20100;-76
2021/10/25 06:06:31;;;;;;;23.48;15.07;;;102.80;2227.20;;;;;;5076624;28;20542;-75
2021/10/25 06:08:56;;;;;;;33.38;17.15;;;102.90;2227.20;;;;;;5084004;28;20103;-75
2021/10/25 06:11:22;;;;;;;30.45;18.10;;;102.90;2227.20;;;;;;5075281;28;20021;-75
2021/10/25 06:13:48;;;;;;;32.08;18.63;;;102.90;2227.20;;;;;;5071408;28;20059;-76
2021/10/25 06:16:35;;;;;;;29.27;17.75;;;102.90;2227.20;;;;;;5076061;28;20119;-76
2021/10/25 06:18:59;;;;;;;32.45;16.80;;;102.90;2227.20;;;;;;5073784;28;20021;-75
2021/10/25 06:21:25;;;;;;;37.08;20.52;;;102.90;2227.20;;;;;;5074767;28;20050;-76
2021/10/25 06:23:54;;;;;;;43.00;20.45;;;103.00;2227.20;;;;;;5074308;28;20028;-75
2021/10/25 06:26:20;;;;;;;51.72;20.98;;;103.00;2227.20;;;;;;5072610;28;20501;-75
2021/10/25 06:28:46;;;;;;;43.28;21.85;;;103.10;2227.20;;;;;;5054838;28;20028;-75
2021/10/25 06:31:12;;;;;;;42.17;22.45;;;103.10;2227.20;;;;;;5054399;28;20029;-75
2021/10/25 06:33:45;;;;;;;56.53;26.08;;;103.20;2227.20;;;;;;5073289;28;20020;-75
2021/10/25 06:36:11;;;;;;;78.63;35.72;;;103.20;2227.20;;;;;;5073133;28;20013;-75
2021/10/25 06:38:50;;;;;;;65.63;32.63;;;103.20;2227.20;;;;;;5072861;28;20532;-75
2021/10/25 06:41:18;;;;;;;52.47;25.05;;;128.00;2252.80;;;;;;5054916;28;20028;-75
2021/10/25 06:43:44;;;;;;;58.53;28.10;;;128.10;2252.80;;;;;;5078932;28;20016;-75
2021/10/25 06:46:11;;;;;;;46.03;23.27;;;128.30;2252.80;;;;;;5078931;28;20033;-75
2021/10/25 06:48:37;;;;;;;30.67;16.83;;;128.20;2252.80;;;;;;5070188;28;20035;-75
2021/10/25 06:51:04;;;;;;;34.55;17.25;;;128.40;2252.80;;;;;;5062725;28;20044;-75
2021/10/25 06:53:29;;;;;;;25.38;14.35;;;128.50;2252.80;;;;;;5053693;28;20083;-75
2021/10/25 06:55:55;;;;;;;25.48;13.75;;;128.60;2252.80;;;;;;5069136;28;20793;-75
2021/10/25 06:58:22;;;;;;;41.00;18.65;;;128.70;2252.80;;;;;;5061664;28;20112;-75
2021/10/25 07:00:49;;;;;;;28.50;16.48;;;128.80;2252.80;;;;;;5075152;28;20020;-74
2021/10/25 07:03:15;;;;;;;39.30;18.52;;;153.60;2252.80;;;;;;5078479;28;20360;-75
2021/10/25 07:05:41;;;;;;;29.05;15.32;;;153.90;2252.80;;;;;;5077081;28;20051;-75
2021/10/25 07:08:07;;;;;;;41.65;19.67;;;153.80;2252.80;;;;;;5059940;28;20020;-75
2021/10/25 07:10:35;;;;;;;33.28;19.00;;;154.00;2252.80;;;;;;5072039;28;20091;-75
2021/10/25 07:13:01;;;;;;;22.23;14.68;;;154.10;2252.80;;;;;;5070656;28;20021;-75
2021/10/25 07:15:29;;;;;;;25.38;16.80;;;154.40;2252.80;;;;;;5080801;28;20383;-75
2021/10/25 08:11:59;;;;;;;18.90;11.38;;;333.10;2329.60;;;;;;5076981;28;20028;-80
2021/10/25 08:14:34;;;;;;;20.05;12.23;;;333.30;2329.60;;;;;;5062296;28;20111;-79
2021/10/25 08:17:01;;;;;;;15.38;10.90;;;333.70;2329.60;;;;;;5077674;28;20633;-78
2021/10/25 08:19:28;;;;;;;19.20;12.23;;;358.40;2329.60;;;;;;5063716;28;20059;-74
2021/10/25 08:22:01;;;;;;;22.33;12.48;;;358.50;2329.60;;;;;;5065105;28;20025;-75
2021/10/25 08:24:31;;;;;;;18.00;12.32;;;358.60;2329.60;;;;;;5074876;28;20013;-75
2021/10/25 08:26:57;;;;;;;21.05;12.27;;;359.10;2329.60;;;;;;5056152;28;20016;-74
2021/10/25 08:29:23;;;;;;;20.45;13.32;;;384.00;2329.60;;;;;;5065078;28;20063;-74
2021/10/25 08:32:07;;;;;;;29.85;14.77;;;384.30;2329.60;;;;;;5076598;28;20036;-74
2021/10/25 08:39:57;;;;;;;14.52;10.25;;;384.70;2329.60;;;;;;5074597;28;20031;-74
2021/10/25 08:42:24;;;;;;;15.15;8.75;;;409.60;2355.20;;;;;;5074979;28;20024;-75
2021/10/25 08:45:03;;;;;;;16.25;7.55;;;409.60;2355.20;;;;;;5074283;28;20395;-75
2021/10/25 08:47:34;;;;;;;11.38;7.50;;;409.90;2355.20;;;;;;5074949;28;20040;-75
2021/10/25 08:50:02;;;;;;;14.90;8.98;;;409.80;2355.20;;;;;;5074786;28;20095;-74
2021/10/25 08:52:29;;;;;;;22.70;12.10;;;409.90;2355.20;;;;;;5073106;28;20024;-74
2021/10/25 08:54:55;;;;;;;18.73;10.02;;;410.30;2355.20;;;;;;5057434;28;20086;-73
2021/10/25 08:57:23;;;;;;;14.50;9.27;;;410.40;2355.20;;;;;;5062141;28;20025;-73
2021/10/25 09:00:00;;;;;;;14.75;8.50;;;410.40;2355.20;;;;;;5077454;28;20025;-73
2021/10/25 09:02:28;;;;;;;12.93;8.85;;;435.20;2355.20;;;;;;5055054;28;20021;-73
2021/10/25 09:05:11;;;;;;;12.80;8.50;;;435.40;2355.20;;;;;;5072551;28;20056;-73
2021/10/25 09:08:02;;;;;;;15.32;9.02;;;435.60;2355.20;;;;;;5074912;28;20103;-74
2021/10/25 09:10:45;;;;;;;12.70;9.52;;;435.50;2355.20;;;;;;5074276;28;20056;-73
2021/10/25 09:13:18;;;;;;;15.65;10.07;;;435.80;2355.20;;;;;;5068803;28;20033;-74
2021/10/25 09:15:55;;;;;;;13.07;8.43;;;460.80;2380.80;;;;;;5064515;28;20052;-74
2021/10/25 09:18:28;;;;;;;12.40;7.72;;;461.00;2380.80;;;;;;5072594;28;20024;-73
2021/10/25 09:20:56;;;;;;;11.60;8.07;;;461.00;2380.80;;;;;;5073093;28;20028;-74
2021/10/25 09:23:25;;;;;;;17.60;9.35;;;460.80;2380.80;;;;;;5073433;28;20032;-74
2021/10/25 09:25:56;;;;;;;13.75;9.27;;;461.10;2380.80;;;;;;5058101;28;20033;-74
2021/10/25 09:28:34;;;;;;;18.02;9.20;;;461.10;2380.80;;;;;;5056495;28;20029;-74
2021/10/25 09:31:09;;;;;;;12.52;8.40;;;461.30;2380.80;;;;;;5069426;28;20098;-74
2021/10/25 09:33:36;;;;;;;10.82;8.07;;;461.40;2380.80;;;;;;5072194;28;20024;-74
2021/10/25 09:36:06;;;;;;;13.05;9.35;;;461.40;2380.80;;;;;;5061198;28;20479;-73
2021/10/25 09:46:37;;;;;;;18.02;9.05;;;486.90;2380.80;;;;;;5075041;28;20040;-74
2021/10/25 09:49:09;;;;;;;13.05;8.27;;;487.00;2329.60;;;;;;5054154;28;20032;-73
2021/10/25 09:51:41;;;;;;;9.00;6.70;;;487.00;2278.40;;;;;;5063468;28;20025;-73
2021/10/25 09:54:08;;;;;;;15.50;7.00;;;487.10;2227.20;;;;;;5063222;28;20029;-74
2021/10/25 09:56:43;;;;;;;13.18;5.70;;;487.30;2201.60;;;;;;5081633;28;20017;-73
2021/10/25 10:01:42;;;;;;;11.70;8.52;;;486.90;2201.60;;;;;;5084987;28;20435;-74
2021/10/25 10:04:09;;;;;;;14.13;7.25;;;486.90;2201.60;;;;;;5076941;28;20020;-73
2021/10/25 10:06:37;;;;;;;11.90;8.70;;;487.30;2150.40;;;;;;5072152;28;20459;-73
2021/10/25 10:09:03;;;;;;;15.43;7.55;;;512.20;2073.60;;;;;;5071578;28;20063;-73
2021/10/25 10:11:29;;;;;;;17.40;11.95;;;512.50;2048.00;;;;;;5062878;28;20033;-74
2021/10/25 10:13:56;;;;;;;14.35;9.10;;;512.40;2048.00;;;;;;5067822;28;20024;-73
2021/10/25 10:16:24;;;;;;;11.73;6.97;;;512.40;2022.40;;;;;;5072279;28;20106;-73
2021/10/25 10:18:55;;;;;;;19.40;16.55;;;512.40;1996.80;;;;;;5072643;28;20017;-73
2021/10/25 10:21:22;;;;;;;22.75;12.30;;;512.70;1971.20;;;;;;5074036;28;20021;-73
2021/10/25 10:23:53;;;;;;;14.07;11.45;;;512.70;1945.60;;;;;;5063445;28;20119;-74
2021/10/25 10:26:19;;;;;;;11.05;7.50;;;512.80;1945.60;;;;;;5059546;28;20040;-74
2021/10/25 10:28:49;;;;;;;11.27;7.47;;;512.80;1894.40;;;;;;5055145;28;20031;-73
2021/10/25 10:31:18;;;;;;;10.82;8.20;;;512.90;1894.40;;;;;;5053667;28;20024;-73
2021/10/25 10:33:52;;;;;;;14.02;9.15;;;538.00;1920.00;;;;;;5072557;28;20043;-73
2021/10/25 10:36:21;;;;;;;11.98;6.95;;;538.10;1894.40;;;;;;5062309;28;20028;-74
2021/10/25 10:38:52;;;;;;;13.43;8.05;;;538.10;1868.80;;;;;;5082244;28;20088;-73
2021/10/25 10:41:20;;;;;;;10.07;7.65;;;538.20;1817.60;;;;;;5063190;28;20395;-73
2021/10/25 10:44:01;;;;;;;8.48;5.78;;;538.10;1792.00;;;;;;5072727;28;20029;-73
2021/10/25 10:46:39;;;;;;;10.70;5.75;;;563.30;1766.40;;;;;;5076617;28;20028;-75
2021/10/25 10:49:05;;;;;;;8.98;7.30;;;563.20;1792.00;;;;;;5070179;28;20035;-74
2021/10/25 10:51:35;;;;;;;8.35;5.45;;;563.70;1766.40;;;;;;5075087;28;20115;-73
2021/10/25 10:54:09;;;;;;;8.15;4.65;;;563.20;1740.80;;;;;;5077157;28;20411;-73
2021/10/25 10:56:51;;;;;;;6.47;4.97;;;563.70;1689.60;;;;;;5078805;28;20384;-73
2021/10/25 10:59:34;;;;;;;17.58;8.15;;;563.70;1715.20;;;;;;5076529;28;20036;-74
2021/10/25 11:01:59;;;;;;;10.88;7.68;;;563.70;1664.00;;;;;;5065681;28;20107;-74
2021/10/25 11:04:33;;;;;;;8.63;4.53;;;563.60;1638.40;;;;;;5073326;28;20460;-74
2021/10/25 11:07:03;;;;;;;7.47;5.72;;;563.30;1664.00;;;;;;5054020;28;20483;-74
2021/10/25 11:09:33;;;;;;;13.35;5.13;;;563.40;1664.00;;;;;;5077081;28;20036;-74
2021/10/25 11:12:06;;;;;;;11.70;6.28;;;563.30;1638.40;;;;;;5071199;28;20037;-74
2021/10/25 11:14:34;;;;;;;13.10;6.13;;;563.30;1638.40;;;;;;5054691;28;20025;-74
2021/10/25 11:19:35;;;;;;;5.88;4.20;;;563.70;1587.20;;;;;;5075660;28;20036;-74
2021/10/25 11:22:03;;;;;;;8.25;4.53;;;563.20;1612.80;;;;;;5055301;28;20025;-74
2021/10/25 11:24:28;;;;;;;7.15;4.70;;;563.70;1587.20;;;;;;5065616;28;20116;-74
2021/10/25 11:26:57;;;;;;;7.07;4.25;;;564.00;1561.60;;;;;;5057515;28;20380;-74
2021/10/25 11:29:35;;;;;;;10.15;5.22;;;564.10;1536.00;;;;;;5072933;28;20037;-73
2021/10/25 11:32:02;;;;;;;6.03;3.88;;;564.00;1536.00;;;;;;5049299;28;20025;-75
2021/10/25 11:34:35;;;;;;;8.30;4.10;;;589.00;1536.00;;;;;;5074465;28;20143;-74
2021/10/25 11:37:19;;;;;;;8.30;4.68;;;588.90;1510.40;;;;;;5070905;28;20056;-74
2021/10/25 11:42:23;;;;;;;10.43;5.50;;;588.90;1510.40;;;;;;5075692;28;20130;-74
2021/10/25 11:44:50;;;;;;;7.82;5.50;;;564.00;1510.40;;;;;;5057329;28;20036;-74
2021/10/25 11:47:40;;;;;;;9.10;5.40;;;589.20;1484.80;;;;;;5074285;28;20403;-74
2021/10/25 11:50:10;;;;;;;9.07;4.85;;;589.10;1510.40;;;;;;5073052;28;20086;-74
2021/10/25 11:52:42;;;;;;;8.55;5.38;;;589.50;1459.20;;;;;;5074911;28;20023;-74
2021/10/25 11:55:10;;;;;;;6.45;5.30;;;589.10;1484.80;;;;;;5059187;28;20027;-74
2021/10/25 11:57:36;;;;;;;7.93;5.25;;;589.50;1459.20;;;;;;5070822;28;20034;-74
2021/10/25 12:00:10;;;;;;;8.93;5.40;;;589.40;1459.20;;;;;;5057227;28;20024;-74
2021/10/25 12:02:37;;;;;;;7.03;4.93;;;614.40;1408.00;;;;;;5070974;28;20136;-74
2021/10/25 12:05:04;;;;;;;13.10;7.05;;;589.40;1408.00;;;;;;5073001;28;20028;-74
2021/10/25 12:07:30;;;;;;;13.77;8.27;;;614.40;1408.00;;;;;;5076889;28;20086;-74
2021/10/25 12:09:58;;;;;;;12.30;6.22;;;589.70;1382.40;;;;;;5062275;28;20023;-74
2021/10/25 12:12:24;;;;;;;12.18;8.02;;;589.20;1433.60;;;;;;5071888;28;20054;-76
2021/10/25 12:14:56;;;;;;;8.85;6.47;;;588.90;1433.60;;;;;;5074438;28;20029;-75
2021/10/25 12:17:27;;;;;;;7.68;5.07;;;589.00;1433.60;;;;;;5073033;28;20047;-75
2021/10/25 12:19:53;;;;;;;7.45;5.13;;;588.90;1433.60;;;;;;5072278;28;20119;-75
2021/10/25 12:22:20;;;;;;;10.50;6.55;;;588.80;1459.20;;;;;;5070623;28;20099;-76
2021/10/25 12:24:51;;;;;;;9.52;6.15;;;563.90;1459.20;;;;;;5072184;28;20048;-76
2021/10/25 12:27:27;;;;;;;15.50;7.25;;;588.90;1433.60;;;;;;5062909;28;20028;-74
2021/10/25 12:30:15;;;;;;;12.63;7.28;;;589.00;1433.60;;;;;;5071436;28;20016;-75
2021/10/25 12:32:56;;;;;;;17.60;8.32;;;589.30;1433.60;;;;;;5069029;28;20077;-75
2021/10/25 12:35:37;;;;;;;13.52;7.25;;;588.90;1433.60;;;;;;5062507;28;20036;-75
2021/10/25 12:38:09;;;;;;;9.98;5.35;;;564.00;1459.20;;;;;;5072936;28;20039;-76
2021/10/25 12:41:12;;;;;;;9.68;7.35;;;563.70;1459.20;;;;;;5073131;28;20498;-75
2021/10/25 12:43:40;;;;;;;12.77;8.30;;;563.90;1459.20;;;;;;4974229;28;20101;-76
2021/10/25 12:46:09;;;;;;;11.80;6.40;;;563.70;1459.20;;;;;;4945580;28;20570;-76
2021/10/25 12:48:50;;;;;;;10.35;6.22;;;563.50;1459.20;;;;;;4955985;28;20058;-76
2021/10/25 12:51:18;;;;;;;13.20;5.97;;;563.50;1459.20;;;;;;4956854;28;20023;-76
2021/10/25 12:53:47;;;;;;;10.43;6.00;;;563.60;1459.20;;;;;;4971548;28;20478;-75
2021/10/25 12:56:22;;;;;;;13.70;6.00;;;563.60;1459.20;;;;;;4955495;28;20027;-74
2021/10/25 12:59:00;;;;;;;9.65;5.55;;;563.70;1459.20;;;;;;4972509;28;20026;-75
2021/10/25 13:01:26;;;;;;;10.75;5.15;;;538.50;1433.60;;;;;;4972395;28;20039;-75
2021/10/25 13:03:59;;;;;;;8.20;5.47;;;563.30;1459.20;;;;;;4973105;28;20043;-76
2021/10/25 13:06:32;;;;;;;10.88;7.00;;;563.50;1459.20;;;;;;4956932;28;20047;-75
2021/10/25 13:09:06;;;;;;;9.90;6.30;;;563.30;1459.20;;;;;;4972739;28;20498;-74
2021/10/25 13:11:32;;;;;;;18.40;9.07;;;538.40;1459.20;;;;;;4956007;28;20034;-76
2021/10/25 13:13:58;;;;;;;20.88;16.75;;;563.20;1484.80;;;;;;4971940;28;20031;-76
2021/10/25 13:16:29;;;;;;;23.27;20.60;;;563.20;1459.20;;;;;;4972811;28;20118;-75
2021/10/25 13:18:55;;;;;;;15.00;7.95;;;538.50;1459.20;;;;;;4974645;28;20486;-75
2021/10/25 13:21:22;;;;;;;9.77;6.78;;;538.30;1484.80;;;;;;5055577;28;20078;-75
2021/10/25 13:23:48;;;;;;;12.45;8.30;;;538.00;1510.40;;;;;;5072438;28;20021;-75
2021/10/25 13:26:14;;;;;;;24.15;13.68;;;538.10;1484.80;;;;;;5075572;28;20025;-75
2021/10/25 13:28:40;;;;;;;18.67;10.63;;;538.30;1484.80;;;;;;5072440;28;20566;-75
2021/10/25 13:31:07;;;;;;;17.05;10.52;;;537.90;1484.80;;;;;;5073262;28;20456;-76
2021/10/25 13:33:37;;;;;;;28.80;21.83;;;537.70;1484.80;;;;;;5057565;28;20110;-75
2021/10/25 13:36:04;;;;;;;21.67;13.57;;;512.90;1484.80;;;;;;5073859;28;20063;-75
2021/10/25 13:38:30;;;;;;;8.60;5.45;;;512.80;1510.40;;;;;;5057091;28;20028;-76
2021/10/25 13:40:56;;;;;;;17.92;9.65;;;512.80;1484.80;;;;;;5045519;28;20173;-76
2021/10/25 13:43:22;;;;;;;12.88;7.38;;;512.70;1510.40;;;;;;5054884;28;20032;-77
2021/10/25 13:45:48;;;;;;;23.77;8.77;;;512.60;1484.80;;;;;;5054047;28;20044;-75
2021/10/25 13:48:14;;;;;;;12.63;7.20;;;512.60;1484.80;;;;;;5054632;28;20734;-76
2021/10/25 13:50:41;;;;;;;11.45;6.63;;;512.10;1510.40;;;;;;5054899;28;20029;-76
2021/10/25 13:53:09;;;;;;;10.80;6.78;;;512.00;1510.40;;;;;;5059869;28;20441;-77
2021/10/25 13:55:35;;;;;;;12.02;7.50;;;487.30;1536.00;;;;;;5054890;28;20089;-76
2021/10/25 13:58:01;;;;;;;10.35;5.88;;;487.10;1561.60;;;;;;5054167;28;20052;-76
2021/10/25 14:00:27;;;;;;;10.07;7.18;;;487.20;1561.60;;;;;;5055524;28;20043;-76